createdAt,value
2019-02-27T00:04:08.280Z,102769.35
2019-02-27T00:09:11.048Z,102763.97
2019-02-27T00:14:13.725Z,102758.25
2019-02-27T00:19:16.406Z,102759.75
2019-02-27T00:24:19.072Z,102762.73
2019-02-27T00:29:21.762Z,102755.41
2019-02-27T00:34:24.433Z,102751.94
2019-02-27T00:39:30.845Z,102750.06
2019-02-27T00:44:33.965Z,102739.73
2019-02-27T00:49:36.329Z,102736.80
2019-02-27T00:54:39.045Z,102724.98
2019-02-27T00:59:41.742Z,102721.45
2019-02-27T01:04:44.423Z,102715.02
2019-02-27T01:09:47.126Z,102718.99
2019-02-27T01:14:49.816Z,102719.58
2019-02-27T01:19:52.526Z,102719.16
2019-02-27T01:24:55.605Z,102718.17
2019-02-27T01:29:58.310Z,102702.11
2019-02-27T01:35:01.000Z,102698.89
2019-02-27T01:40:05.583Z,102686.45
2019-02-27T01:45:12.358Z,102687.39
2019-02-27T01:50:33.835Z,102675.64
2019-02-27T01:55:36.619Z,102666.00
2019-02-27T02:00:39.909Z,102658.19
2019-02-27T02:05:42.629Z,102657.25
2019-02-27T02:10:45.312Z,102637.23
2019-02-27T02:16:36.771Z,102644.09
2019-02-27T02:22:20.146Z,102633.37
2019-02-27T02:28:09.207Z,102619.46
2019-02-27T02:33:30.307Z,102605.23
2019-02-27T02:39:33.947Z,102602.97
2019-02-27T02:45:17.120Z,102587.06
2019-02-27T02:51:18.170Z,102580.88
2019-02-27T02:56:39.302Z,102587.27
2019-02-27T03:02:23.427Z,102570.97
2019-02-27T03:08:20.145Z,102566.35
2019-02-27T03:14:26.592Z,102558.34
2019-02-27T03:20:27.091Z,102541.54
2019-02-27T03:26:36.252Z,102536.77
2019-02-27T03:32:40.853Z,102536.52
2019-02-27T03:38:24.013Z,102532.57
2019-02-27T03:44:13.007Z,102531.25
2019-02-27T03:50:15.049Z,102535.31
2019-02-27T03:56:20.883Z,102533.67
2019-02-27T04:02:11.064Z,102524.61
2019-02-27T04:08:08.631Z,102509.42
2019-02-27T04:13:10.720Z,102504.66
2019-02-27T04:18:11.966Z,102501.34
2019-02-27T04:23:14.762Z,102513.59
2019-02-27T04:28:17.605Z,102504.94
2019-02-27T04:33:23.440Z,102500.05
2019-02-27T04:38:27.609Z,102486.91
2019-02-27T04:43:32.173Z,102492.31
2019-02-27T04:48:38.547Z,102488.11
2019-02-27T04:53:41.258Z,102481.86
2019-02-27T04:58:44.047Z,102486.85
2019-02-27T05:03:46.740Z,102484.64
2019-02-27T05:08:49.483Z,102481.10
2019-02-27T05:13:54.356Z,102481.13
2019-02-27T05:18:56.877Z,102472.48
2019-02-27T05:23:59.627Z,102472.33
2019-02-27T05:29:02.378Z,102469.61
2019-02-27T05:34:05.118Z,102465.45
2019-02-27T05:39:07.912Z,102474.97
2019-02-27T05:44:10.632Z,102460.02
2019-02-27T05:49:13.382Z,102459.33
2019-02-27T05:54:16.072Z,102463.20
2019-02-27T05:59:18.780Z,102462.19
2019-02-27T06:04:24.962Z,102459.75
2019-02-27T06:09:26.048Z,102461.83
2019-02-27T06:14:28.802Z,102476.54
2019-02-27T06:19:33.600Z,102471.09
2019-02-27T06:24:47.975Z,102461.97
2019-02-27T06:29:50.753Z,102454.02
2019-02-27T06:34:53.476Z,102460.61
2019-02-27T06:39:56.210Z,102472.00
2019-02-27T06:44:58.958Z,102471.25
2019-02-27T06:50:01.695Z,102448.81
2019-02-27T06:55:05.093Z,102447.61
2019-02-27T07:00:15.495Z,102460.36
2019-02-27T07:05:18.237Z,102443.87
2019-02-27T07:10:20.991Z,102434.84
2019-02-27T07:15:23.759Z,102441.82
2019-02-27T07:20:26.459Z,102445.56
2019-02-27T07:25:29.239Z,102426.07
2019-02-27T07:30:32.117Z,102433.09
2019-02-27T07:35:34.887Z,102423.31
2019-02-27T07:40:37.628Z,102434.95
2019-02-27T07:45:45.017Z,102437.73
2019-02-27T07:50:48.375Z,102437.56
2019-02-27T07:55:49.651Z,102440.83
2019-02-27T08:00:52.311Z,102438.55
2019-02-27T08:05:55.184Z,102441.13
2019-02-27T08:10:57.926Z,102428.09
2019-02-27T08:16:00.748Z,102420.17
2019-02-27T08:21:03.488Z,102418.31
2019-02-27T08:26:06.256Z,102414.20
2019-02-27T08:31:08.997Z,102397.91
2019-02-27T08:36:11.755Z,102390.26
2019-02-27T08:41:14.562Z,102377.41
2019-02-27T08:46:17.397Z,102373.22
2019-02-27T08:51:20.167Z,102362.90
2019-02-27T08:56:22.948Z,102363.01
2019-02-27T09:01:25.718Z,102355.65
2019-02-27T09:06:28.463Z,102366.52
2019-02-27T09:11:31.278Z,102359.58
2019-02-27T09:16:34.045Z,102353.44
2019-02-27T09:21:36.804Z,102329.87
2019-02-27T09:26:39.595Z,102339.77
2019-02-27T09:31:50.530Z,102323.05
2019-02-27T09:36:49.056Z,102325.87
2019-02-27T09:41:51.831Z,102336.57
2019-02-27T09:47:05.996Z,102309.67
2019-02-27T09:52:10.187Z,102288.38
2019-02-27T09:57:15.855Z,102308.03
2019-02-27T10:02:18.657Z,102284.42
2019-02-27T10:07:21.496Z,102296.40
2019-02-27T10:12:27.081Z,102287.76
2019-02-27T10:17:28.943Z,102287.24
2019-02-27T10:22:34.023Z,102285.30
2019-02-27T10:27:37.190Z,102268.58
2019-02-27T10:32:57.808Z,102264.53
2019-02-27T10:38:17.013Z,102265.51
2019-02-27T10:43:16.150Z,102238.12
2019-02-27T10:48:19.413Z,102235.87
2019-02-27T10:53:27.178Z,102244.13
2019-02-27T10:58:27.761Z,102229.45
2019-02-27T11:03:31.999Z,102216.83
2019-02-27T11:08:36.144Z,102233.39
2019-02-27T11:13:39.468Z,102209.51
2019-02-27T11:18:42.836Z,102198.23
2019-02-27T11:23:46.208Z,102193.26
2019-02-27T11:28:49.272Z,102201.77
2019-02-27T11:33:52.191Z,102179.88
2019-02-27T11:38:56.654Z,102191.56
2019-02-27T12:28:03.905Z,102086.56
2019-02-27T12:33:06.717Z,102081.28
2019-02-27T12:38:11.439Z,102062.09
2019-02-27T12:43:18.379Z,102057.24
2019-02-27T12:48:20.693Z,102052.62
2019-02-27T12:53:23.409Z,102043.69
2019-02-27T12:58:26.107Z,102032.28
2019-02-27T13:03:28.824Z,102019.51
2019-02-27T13:08:31.537Z,102011.51
2019-02-27T13:13:34.232Z,102007.39
2019-02-27T13:18:36.929Z,101988.38
2019-02-27T13:23:42.263Z,101986.66
2019-02-27T13:28:46.018Z,101984.81
2019-02-27T13:33:48.852Z,101982.13
2019-02-27T13:38:52.255Z,101974.66
2019-02-27T13:43:58.268Z,101966.63
2019-02-27T13:49:00.143Z,101957.04
2019-02-27T13:54:02.967Z,101955.48
2019-02-27T13:59:07.432Z,101951.09
2019-02-27T14:04:10.286Z,101944.73
2019-02-27T14:09:12.975Z,101937.30
2019-02-27T14:14:17.657Z,101933.09
2019-02-27T14:19:21.357Z,101924.53
2019-02-27T14:24:24.966Z,101914.38
2019-02-27T14:29:29.776Z,101905.73
2019-02-27T14:34:32.252Z,101900.09
2019-02-27T14:39:34.972Z,101885.48
2019-02-27T14:44:37.782Z,101876.28
2019-02-27T14:49:40.597Z,101870.03
2019-02-27T14:54:43.294Z,101863.98
2019-02-27T14:59:45.996Z,101855.95
2019-02-27T15:04:48.712Z,101838.77
2019-02-27T15:09:51.409Z,101841.58
2019-02-27T15:14:54.112Z,101829.87
2019-02-27T15:19:56.812Z,101816.70
2019-02-27T15:24:59.528Z,101802.14
2019-02-27T15:30:02.237Z,101802.29
2019-02-27T15:35:05.847Z,101792.51
2019-02-27T15:40:10.415Z,101783.57
2019-02-27T15:45:15.346Z,101775.58
2019-02-27T15:50:22.418Z,101768.08
2019-02-27T15:55:24.208Z,101766.88
2019-02-27T16:00:27.080Z,101749.64
2019-02-27T16:05:31.261Z,101747.45
2019-02-27T16:10:34.443Z,101742.63
2019-02-27T16:15:37.186Z,101733.12
2019-02-27T16:20:40.132Z,101721.55
2019-02-27T16:25:42.860Z,101710.98
2019-02-27T16:30:45.655Z,101710.94
2019-02-27T16:35:48.542Z,101706.62
2019-02-27T16:40:52.542Z,101696.28
2019-02-27T16:45:55.854Z,101696.94
2019-02-27T16:51:00.659Z,101691.30
2019-02-27T16:56:03.197Z,101675.42
2019-02-27T17:01:07.177Z,101675.80
2019-02-27T17:06:09.880Z,101670.06
2019-02-27T17:11:12.594Z,101646.16
2019-02-27T17:16:15.397Z,101652.55
2019-02-27T17:21:22.022Z,101650.78
2019-02-27T17:26:22.794Z,101643.69
2019-02-27T17:31:25.467Z,101639.77
2019-02-27T17:36:31.700Z,101633.53
2019-02-27T17:41:32.928Z,101626.87
2019-02-27T17:46:35.621Z,101624.16
2019-02-27T17:51:39.480Z,101614.59
2019-02-27T17:56:43.049Z,101607.19
2019-02-27T18:01:47.046Z,101603.02
2019-02-27T18:06:49.983Z,101587.74
2019-02-27T18:11:53.262Z,101584.91
2019-02-27T18:16:59.238Z,101565.89
2019-02-27T18:22:00.658Z,101564.42
2019-02-27T18:27:03.468Z,101550.19
2019-02-27T18:32:06.678Z,101541.56
2019-02-27T18:37:09.600Z,101537.06
2019-02-27T18:42:12.323Z,101527.36
2019-02-27T18:47:15.050Z,101520.05
2019-02-27T18:52:21.389Z,101516.95
2019-02-27T18:57:22.470Z,101504.57
2019-02-27T19:02:25.159Z,101489.30
2019-02-27T19:07:28.341Z,101489.12
2019-02-27T19:12:32.818Z,101478.91
2019-02-27T19:17:35.584Z,101478.71
2019-02-27T19:22:38.290Z,101474.48
2019-02-27T19:27:41.030Z,101466.77
2019-02-27T19:32:44.422Z,101462.83
2019-02-27T19:37:47.149Z,101461.80
2019-02-27T19:42:53.018Z,101461.20
2019-02-27T19:47:55.962Z,101454.34
2019-02-27T19:53:02.982Z,101446.13
2019-02-27T19:58:03.638Z,101440.80
2019-02-27T20:03:06.438Z,101438.86
2019-02-27T20:08:12.003Z,101436.42
2019-02-27T20:13:14.707Z,101434.53
2019-02-27T20:18:17.613Z,101432.94
2019-02-27T20:23:20.350Z,101423.17
2019-02-27T20:28:23.073Z,101419.64
2019-02-27T20:33:25.789Z,101415.61
2019-02-27T20:38:28.607Z,101414.28
2019-02-27T20:43:31.331Z,101412.21
2019-02-27T20:48:36.000Z,101410.31
2019-02-27T20:53:38.673Z,101394.03
2019-02-27T20:58:41.422Z,101392.86
2019-02-27T21:03:44.236Z,101385.70
2019-02-27T21:08:46.941Z,101381.56
2019-02-27T21:13:50.272Z,101373.11
2019-02-27T21:18:53.105Z,101363.64
2019-02-27T21:23:55.802Z,101357.80
2019-02-27T21:28:59.021Z,101353.56
2019-02-27T21:34:01.956Z,101345.05
2019-02-27T21:39:05.479Z,101344.39
2019-02-27T21:44:08.190Z,101339.30
2019-02-27T21:49:11.155Z,101319.86
2019-02-27T21:54:14.039Z,101325.77
2019-02-27T21:59:16.736Z,101318.55
2019-02-27T22:04:19.442Z,101320.95
2019-02-27T22:09:22.208Z,101321.31
2019-02-27T22:14:24.918Z,101313.03
2019-02-27T22:19:27.629Z,101306.80
2019-02-27T22:24:30.326Z,101297.73
2019-02-27T22:29:33.048Z,101286.71
2019-02-27T22:34:35.775Z,101286.00
2019-02-27T22:39:38.491Z,101277.28
2019-02-27T22:44:41.218Z,101278.63
2019-02-27T22:49:44.010Z,101271.84
2019-02-27T22:54:46.706Z,101268.95
2019-02-27T22:59:49.419Z,101271.67
2019-02-27T23:04:52.120Z,101273.34
2019-02-27T23:09:57.506Z,101261.66
2019-02-27T23:14:59.441Z,101261.88
2019-02-27T23:20:02.165Z,101245.47
2019-02-27T23:25:04.898Z,101243.84
2019-02-27T23:30:07.991Z,101244.71
2019-02-27T23:35:15.996Z,101253.45
2019-02-27T23:40:17.452Z,101255.09
2019-02-27T23:45:19.917Z,101240.61
2019-02-27T23:50:22.624Z,101240.20
2019-02-27T23:55:25.327Z,101230.27
